sensor_id;sensor_type;location;lat;lon;timestamp;pressure;altitude;pressure_sealevel;temperature;humidity
64080;BME280;51042;49.696;10.808;2023-03-31T00:00:19;97851.59;;;8.10;100.00
64080;BME280;51042;49.696;10.808;2023-03-31T00:02:44;97844.16;;;8.11;100.00
64080;BME280;51042;49.696;10.808;2023-03-31T00:05:10;97843.84;;;8.09;100.00
64080;BME280;51042;49.696;10.808;2023-03-31T00:07:35;97833.06;;;8.18;100.00
64080;BME280;51042;49.696;10.808;2023-03-31T00:10:04;97804.00;;;8.24;100.00
64080;BME280;51042;49.696;10.808;2023-03-31T00:12:30;97802.69;;;8.29;100.00
64080;BME280;51042;49.696;10.808;2023-03-31T00:14:55;97781.19;;;8.31;100.00
64080;BME280;51042;49.696;10.808;2023-03-31T00:17:21;97782.81;;;8.28;100.00
64080;BME280;51042;49.696;10.808;2023-03-31T00:19:46;97782.03;;;8.28;100.00
64080;BME280;51042;49.696;10.808;2023-03-31T00:22:16;97778.84;;;8.29;100.00
64080;BME280;51042;49.696;10.808;2023-03-31T00:24:43;97776.88;;;8.30;100.00
64080;BME280;51042;49.696;10.808;2023-03-31T00:27:08;97771.97;;;8.25;100.00
64080;BME280;51042;49.696;10.808;2023-03-31T00:29:35;97776.34;;;8.22;100.00
64080;BME280;51042;49.696;10.808;2023-03-31T00:32:01;97781.28;;;8.27;100.00
64080;BME280;51042;49.696;10.808;2023-03-31T00:34:26;97777.34;;;8.28;100.00
64080;BME280;51042;49.696;10.808;2023-03-31T00:36:52;97773.16;;;8.24;100.00
64080;BME280;51042;49.696;10.808;2023-03-31T00:39:20;97764.19;;;8.23;100.00
64080;BME280;51042;49.696;10.808;2023-03-31T00:41:47;97773.59;;;8.22;100.00
64080;BME280;51042;49.696;10.808;2023-03-31T00:44:14;97768.47;;;8.24;100.00
64080;BME280;51042;49.696;10.808;2023-03-31T00:46:49;97768.03;;;8.26;100.00
64080;BME280;51042;49.696;10.808;2023-03-31T00:51:51;97757.94;;;8.23;100.00
64080;BME280;51042;49.696;10.808;2023-03-31T00:54:21;97754.03;;;8.24;100.00
64080;BME280;51042;49.696;10.808;2023-03-31T00:56:49;97740.03;;;8.22;100.00
64080;BME280;51042;49.696;10.808;2023-03-31T00:59:19;97746.28;;;8.22;100.00
64080;BME280;51042;49.696;10.808;2023-03-31T01:01:51;97747.34;;;8.25;100.00
64080;BME280;51042;49.696;10.808;2023-03-31T01:04:18;97747.28;;;8.28;100.00
64080;BME280;51042;49.696;10.808;2023-03-31T01:06:55;97734.34;;;8.29;100.00
64080;BME280;51042;49.696;10.808;2023-03-31T01:09:28;97736.34;;;8.28;100.00
64080;BME280;51042;49.696;10.808;2023-03-31T01:11:58;97725.41;;;8.28;100.00
64080;BME280;51042;49.696;10.808;2023-03-31T01:14:25;97718.69;;;8.16;100.00
64080;BME280;51042;49.696;10.808;2023-03-31T01:16:50;97723.63;;;8.09;100.00
64080;BME280;51042;49.696;10.808;2023-03-31T01:19:31;97710.81;;;8.06;100.00
64080;BME280;51042;49.696;10.808;2023-03-31T01:24:57;97695.31;;;8.03;100.00
64080;BME280;51042;49.696;10.808;2023-03-31T01:27:36;97699.66;;;8.00;100.00
64080;BME280;51042;49.696;10.808;2023-03-31T01:30:19;97686.53;;;7.95;100.00
64080;BME280;51042;49.696;10.808;2023-03-31T01:35:29;97678.66;;;7.85;100.00
64080;BME280;51042;49.696;10.808;2023-03-31T01:40:43;97667.53;;;7.92;100.00
64080;BME280;51042;49.696;10.808;2023-03-31T01:52:07;97662.28;;;7.97;100.00
64080;BME280;51042;49.696;10.808;2023-03-31T01:54:44;97659.56;;;7.97;100.00
64080;BME280;51042;49.696;10.808;2023-03-31T01:57:18;97656.72;;;8.01;100.00
64080;BME280;51042;49.696;10.808;2023-03-31T01:59:57;97656.72;;;8.01;100.00
64080;BME280;51042;49.696;10.808;2023-03-31T02:02:30;97645.44;;;7.99;100.00
64080;BME280;51042;49.696;10.808;2023-03-31T02:05:02;97642.63;;;8.02;100.00
64080;BME280;51042;49.696;10.808;2023-03-31T02:07:42;97635.63;;;8.01;100.00
64080;BME280;51042;49.696;10.808;2023-03-31T02:10:12;97631.34;;;8.00;100.00
64080;BME280;51042;49.696;10.808;2023-03-31T02:12:41;97644.94;;;8.04;100.00
64080;BME280;51042;49.696;10.808;2023-03-31T02:15:10;97625.34;;;8.05;100.00
64080;BME280;51042;49.696;10.808;2023-03-31T02:17:42;97635.28;;;8.12;100.00
64080;BME280;51042;49.696;10.808;2023-03-31T02:20:13;97622.63;;;8.05;100.00
64080;BME280;51042;49.696;10.808;2023-03-31T02:22:42;97637.72;;;8.10;100.00
64080;BME280;51042;49.696;10.808;2023-03-31T02:25:13;97625.56;;;8.11;100.00
64080;BME280;51042;49.696;10.808;2023-03-31T02:27:44;97612.38;;;8.09;100.00
64080;BME280;51042;49.696;10.808;2023-03-31T02:30:17;97607.00;;;8.06;100.00
64080;BME280;51042;49.696;10.808;2023-03-31T02:32:43;97596.81;;;8.06;100.00
64080;BME280;51042;49.696;10.808;2023-03-31T02:35:14;97606.56;;;8.07;100.00
64080;BME280;51042;49.696;10.808;2023-03-31T02:37:41;97596.72;;;8.10;100.00
64080;BME280;51042;49.696;10.808;2023-03-31T02:40:11;97585.34;;;8.11;100.00
64080;BME280;51042;49.696;10.808;2023-03-31T02:42:42;97580.97;;;8.14;100.00
64080;BME280;51042;49.696;10.808;2023-03-31T02:48:08;97571.91;;;8.17;100.00
64080;BME280;51042;49.696;10.808;2023-03-31T02:50:41;97565.34;;;8.14;100.00
64080;BME280;51042;49.696;10.808;2023-03-31T03:04:35;97569.50;;;8.06;100.00
64080;BME280;51042;49.696;10.808;2023-03-31T03:12:33;97554.63;;;8.07;100.00
64080;BME280;51042;49.696;10.808;2023-03-31T03:15:13;97543.16;;;8.12;100.00
64080;BME280;51042;49.696;10.808;2023-03-31T03:17:44;97532.22;;;8.12;100.00
64080;BME280;51042;49.696;10.808;2023-03-31T03:20:12;97524.38;;;8.14;100.00
64080;BME280;51042;49.696;10.808;2023-03-31T03:22:40;97522.50;;;8.11;100.00
64080;BME280;51042;49.696;10.808;2023-03-31T03:25:07;97517.72;;;8.03;100.00
64080;BME280;51042;49.696;10.808;2023-03-31T03:27:35;97517.16;;;7.95;100.00
64080;BME280;51042;49.696;10.808;2023-03-31T03:30:02;97513.47;;;7.89;100.00
64080;BME280;51042;49.696;10.808;2023-03-31T03:32:29;97511.94;;;7.88;100.00
64080;BME280;51042;49.696;10.808;2023-03-31T03:34:55;97505.69;;;7.88;100.00
64080;BME280;51042;49.696;10.808;2023-03-31T03:37:20;97499.81;;;7.89;100.00
64080;BME280;51042;49.696;10.808;2023-03-31T03:39:46;97501.34;;;7.90;100.00
64080;BME280;51042;49.696;10.808;2023-03-31T03:42:11;97492.25;;;7.93;100.00
64080;BME280;51042;49.696;10.808;2023-03-31T03:44:36;97484.72;;;7.97;100.00
64080;BME280;51042;49.696;10.808;2023-03-31T03:47:01;97480.66;;;8.02;100.00
64080;BME280;51042;49.696;10.808;2023-03-31T03:49:27;97471.28;;;8.03;100.00
64080;BME280;51042;49.696;10.808;2023-03-31T03:51:52;97477.03;;;8.05;100.00
64080;BME280;51042;49.696;10.808;2023-03-31T03:54:17;97477.38;;;8.07;100.00
64080;BME280;51042;49.696;10.808;2023-03-31T03:56:43;97474.97;;;8.09;100.00
64080;BME280;51042;49.696;10.808;2023-03-31T03:59:09;97470.28;;;8.09;100.00
64080;BME280;51042;49.696;10.808;2023-03-31T04:01:35;97469.59;;;8.05;100.00
64080;BME280;51042;49.696;10.808;2023-03-31T04:04:01;97477.56;;;8.12;100.00
64080;BME280;51042;49.696;10.808;2023-03-31T04:06:26;97465.44;;;8.13;100.00
64080;BME280;51042;49.696;10.808;2023-03-31T04:08:52;97459.53;;;8.15;100.00
64080;BME280;51042;49.696;10.808;2023-03-31T04:11:17;97455.09;;;8.08;100.00
64080;BME280;51042;49.696;10.808;2023-03-31T04:13:43;97452.91;;;8.03;100.00
64080;BME280;51042;49.696;10.808;2023-03-31T04:16:09;97454.88;;;8.03;100.00
64080;BME280;51042;49.696;10.808;2023-03-31T04:18:36;97443.06;;;8.06;100.00
64080;BME280;51042;49.696;10.808;2023-03-31T04:21:06;97446.13;;;8.08;100.00
64080;BME280;51042;49.696;10.808;2023-03-31T04:23:46;97431.69;;;8.07;100.00
64080;BME280;51042;49.696;10.808;2023-03-31T04:26:14;97425.91;;;8.05;100.00
64080;BME280;51042;49.696;10.808;2023-03-31T04:28:41;97424.69;;;8.06;100.00
64080;BME280;51042;49.696;10.808;2023-03-31T04:31:10;97415.63;;;8.09;100.00
64080;BME280;51042;49.696;10.808;2023-03-31T04:33:48;97405.00;;;8.11;100.00
64080;BME280;51042;49.696;10.808;2023-03-31T04:36:18;97408.19;;;8.10;100.00
64080;BME280;51042;49.696;10.808;2023-03-31T04:38:44;97405.13;;;8.08;100.00
64080;BME280;51042;49.696;10.808;2023-03-31T04:41:18;97400.44;;;8.08;100.00
64080;BME280;51042;49.696;10.808;2023-03-31T04:43:47;97391.34;;;8.11;100.00
64080;BME280;51042;49.696;10.808;2023-03-31T04:46:13;97376.03;;;8.14;100.00
64080;BME280;51042;49.696;10.808;2023-03-31T04:48:38;97384.22;;;8.14;100.00
64080;BME280;51042;49.696;10.808;2023-03-31T04:51:04;97380.59;;;8.17;100.00
64080;BME280;51042;49.696;10.808;2023-03-31T04:53:29;97373.50;;;8.19;100.00
64080;BME280;51042;49.696;10.808;2023-03-31T04:55:55;97378.78;;;8.14;100.00
64080;BME280;51042;49.696;10.808;2023-03-31T04:58:20;97374.50;;;8.13;100.00
64080;BME280;51042;49.696;10.808;2023-03-31T05:00:46;97371.00;;;8.12;100.00
64080;BME280;51042;49.696;10.808;2023-03-31T05:03:11;97372.97;;;8.12;100.00
64080;BME280;51042;49.696;10.808;2023-03-31T05:05:36;97361.75;;;8.10;100.00
64080;BME280;51042;49.696;10.808;2023-03-31T05:08:02;97359.75;;;8.10;100.00
64080;BME280;51042;49.696;10.808;2023-03-31T05:10:28;97366.44;;;8.09;100.00
64080;BME280;51042;49.696;10.808;2023-03-31T05:12:53;97353.56;;;8.10;100.00
64080;BME280;51042;49.696;10.808;2023-03-31T05:15:19;97335.50;;;8.12;100.00
64080;BME280;51042;49.696;10.808;2023-03-31T05:17:44;97332.75;;;8.12;100.00
64080;BME280;51042;49.696;10.808;2023-03-31T05:20:10;97317.13;;;8.13;100.00
64080;BME280;51042;49.696;10.808;2023-03-31T05:22:38;97321.38;;;8.14;100.00
64080;BME280;51042;49.696;10.808;2023-03-31T05:25:04;97317.00;;;8.16;100.00
64080;BME280;51042;49.696;10.808;2023-03-31T05:27:32;97313.19;;;8.14;100.00
64080;BME280;51042;49.696;10.808;2023-03-31T05:29:58;97295.13;;;8.16;100.00
64080;BME280;51042;49.696;10.808;2023-03-31T05:32:24;97279.06;;;8.18;100.00
64080;BME280;51042;49.696;10.808;2023-03-31T05:34:50;97289.09;;;8.22;100.00
64080;BME280;51042;49.696;10.808;2023-03-31T05:37:17;97279.38;;;8.20;100.00
64080;BME280;51042;49.696;10.808;2023-03-31T05:39:43;97280.97;;;8.31;100.00
64080;BME280;51042;49.696;10.808;2023-03-31T05:42:09;97278.56;;;8.33;100.00
64080;BME280;51042;49.696;10.808;2023-03-31T05:44:34;97277.56;;;8.39;100.00
64080;BME280;51042;49.696;10.808;2023-03-31T05:46:59;97268.00;;;8.44;100.00
64080;BME280;51042;49.696;10.808;2023-03-31T05:49:24;97275.75;;;8.45;100.00
64080;BME280;51042;49.696;10.808;2023-03-31T05:51:50;97272.44;;;8.50;100.00
64080;BME280;51042;49.696;10.808;2023-03-31T05:54:15;97268.19;;;8.49;100.00
64080;BME280;51042;49.696;10.808;2023-03-31T05:56:41;97267.41;;;8.49;100.00
64080;BME280;51042;49.696;10.808;2023-03-31T05:59:06;97256.75;;;8.42;100.00
64080;BME280;51042;49.696;10.808;2023-03-31T06:01:31;97259.91;;;8.40;100.00
64080;BME280;51042;49.696;10.808;2023-03-31T06:03:56;97249.44;;;8.39;100.00
64080;BME280;51042;49.696;10.808;2023-03-31T06:06:22;97253.38;;;8.38;100.00
64080;BME280;51042;49.696;10.808;2023-03-31T06:08:48;97250.22;;;8.39;100.00
64080;BME280;51042;49.696;10.808;2023-03-31T06:11:14;97245.50;;;8.40;100.00
64080;BME280;51042;49.696;10.808;2023-03-31T06:13:43;97242.78;;;8.40;100.00
64080;BME280;51042;49.696;10.808;2023-03-31T06:16:09;97239.28;;;8.39;100.00
64080;BME280;51042;49.696;10.808;2023-03-31T06:18:36;97241.44;;;8.44;100.00
64080;BME280;51042;49.696;10.808;2023-03-31T06:21:02;97239.31;;;8.48;100.00
64080;BME280;51042;49.696;10.808;2023-03-31T06:23:33;97254.50;;;8.49;100.00
64080;BME280;51042;49.696;10.808;2023-03-31T06:26:00;97258.28;;;8.43;100.00
64080;BME280;51042;49.696;10.808;2023-03-31T06:28:27;97260.38;;;8.39;100.00
64080;BME280;51042;49.696;10.808;2023-03-31T06:30:59;97260.81;;;8.37;100.00
64080;BME280;51042;49.696;10.808;2023-03-31T06:33:28;97257.66;;;8.39;100.00
64080;BME280;51042;49.696;10.808;2023-03-31T06:35:54;97258.88;;;8.47;100.00
64080;BME280;51042;49.696;10.808;2023-03-31T06:38:21;97256.81;;;8.51;100.00
64080;BME280;51042;49.696;10.808;2023-03-31T06:40:46;97249.81;;;8.50;100.00
64080;BME280;51042;49.696;10.808;2023-03-31T06:43:15;97255.13;;;8.53;100.00
64080;BME280;51042;49.696;10.808;2023-03-31T06:45:40;97254.06;;;8.51;100.00
64080;BME280;51042;49.696;10.808;2023-03-31T06:48:05;97251.63;;;8.53;100.00
64080;BME280;51042;49.696;10.808;2023-03-31T06:50:31;97265.00;;;8.51;100.00
64080;BME280;51042;49.696;10.808;2023-03-31T06:52:59;97266.81;;;8.54;100.00
64080;BME280;51042;49.696;10.808;2023-03-31T06:55:24;97274.16;;;8.57;100.00
64080;BME280;51042;49.696;10.808;2023-03-31T06:57:50;97269.44;;;8.57;100.00
64080;BME280;51042;49.696;10.808;2023-03-31T07:00:20;97251.91;;;8.46;100.00
64080;BME280;51042;49.696;10.808;2023-03-31T07:02:46;97258.78;;;8.50;100.00
64080;BME280;51042;49.696;10.808;2023-03-31T07:05:14;97253.56;;;8.43;100.00
64080;BME280;51042;49.696;10.808;2023-03-31T07:07:40;97251.78;;;8.49;100.00
64080;BME280;51042;49.696;10.808;2023-03-31T07:10:06;97246.16;;;8.53;100.00
64080;BME280;51042;49.696;10.808;2023-03-31T07:12:34;97235.38;;;8.58;100.00
64080;BME280;51042;49.696;10.808;2023-03-31T07:14:59;97238.19;;;8.68;100.00
64080;BME280;51042;49.696;10.808;2023-03-31T07:17:25;97241.69;;;8.68;100.00
64080;BME280;51042;49.696;10.808;2023-03-31T07:19:50;97235.88;;;8.66;100.00
64080;BME280;51042;49.696;10.808;2023-03-31T07:22:16;97221.88;;;8.64;100.00
64080;BME280;51042;49.696;10.808;2023-03-31T07:24:41;97218.88;;;8.62;100.00
64080;BME280;51042;49.696;10.808;2023-03-31T07:27:06;97203.69;;;8.70;100.00
64080;BME280;51042;49.696;10.808;2023-03-31T07:29:32;97195.84;;;8.81;100.00
64080;BME280;51042;49.696;10.808;2023-03-31T07:31:57;97201.16;;;8.94;100.00
64080;BME280;51042;49.696;10.808;2023-03-31T07:34:25;97194.78;;;9.06;100.00
64080;BME280;51042;49.696;10.808;2023-03-31T07:36:53;97181.75;;;9.10;100.00
64080;BME280;51042;49.696;10.808;2023-03-31T07:39:19;97177.31;;;9.13;100.00
64080;BME280;51042;49.696;10.808;2023-03-31T07:41:44;97171.84;;;9.13;100.00
64080;BME280;51042;49.696;10.808;2023-03-31T07:44:09;97168.50;;;9.18;100.00
64080;BME280;51042;49.696;10.808;2023-03-31T07:46:35;97161.69;;;9.22;100.00
64080;BME280;51042;49.696;10.808;2023-03-31T07:49:00;97159.22;;;9.24;100.00
64080;BME280;51042;49.696;10.808;2023-03-31T07:51:28;97152.06;;;9.18;100.00
64080;BME280;51042;49.696;10.808;2023-03-31T07:53:53;97157.25;;;9.25;100.00
64080;BME280;51042;49.696;10.808;2023-03-31T07:56:19;97163.50;;;9.16;100.00
64080;BME280;51042;49.696;10.808;2023-03-31T07:58:51;97165.47;;;9.07;100.00
64080;BME280;51042;49.696;10.808;2023-03-31T08:01:17;97149.81;;;8.98;100.00
64080;BME280;51042;49.696;10.808;2023-03-31T08:03:45;97136.25;;;8.94;100.00
64080;BME280;51042;49.696;10.808;2023-03-31T08:06:19;97137.19;;;8.91;100.00
64080;BME280;51042;49.696;10.808;2023-03-31T08:08:45;97140.38;;;8.90;100.00
64080;BME280;51042;49.696;10.808;2023-03-31T08:11:11;97116.78;;;8.83;100.00
64080;BME280;51042;49.696;10.808;2023-03-31T08:13:36;97116.94;;;8.89;100.00
64080;BME280;51042;49.696;10.808;2023-03-31T08:16:04;97115.44;;;8.88;100.00
64080;BME280;51042;49.696;10.808;2023-03-31T08:18:29;97110.13;;;8.84;100.00
64080;BME280;51042;49.696;10.808;2023-03-31T08:20:55;97113.44;;;8.88;100.00
64080;BME280;51042;49.696;10.808;2023-03-31T08:23:20;97121.06;;;8.84;100.00
64080;BME280;51042;49.696;10.808;2023-03-31T08:25:45;97120.13;;;8.78;100.00
64080;BME280;51042;49.696;10.808;2023-03-31T08:28:11;97112.09;;;8.84;100.00
64080;BME280;51042;49.696;10.808;2023-03-31T08:30:38;97100.09;;;8.90;100.00
64080;BME280;51042;49.696;10.808;2023-03-31T08:33:05;97076.06;;;8.94;100.00
64080;BME280;51042;49.696;10.808;2023-03-31T08:35:32;97063.91;;;8.95;100.00
64080;BME280;51042;49.696;10.808;2023-03-31T08:38:00;97041.25;;;8.95;100.00
64080;BME280;51042;49.696;10.808;2023-03-31T08:40:26;96996.13;;;8.90;100.00
64080;BME280;51042;49.696;10.808;2023-03-31T08:42:54;97030.63;;;8.97;100.00
64080;BME280;51042;49.696;10.808;2023-03-31T08:45:29;97050.97;;;9.14;100.00
64080;BME280;51042;49.696;10.808;2023-03-31T08:48:02;97043.69;;;9.29;100.00
64080;BME280;51042;49.696;10.808;2023-03-31T08:50:33;97046.34;;;9.48;100.00
64080;BME280;51042;49.696;10.808;2023-03-31T08:53:06;97027.75;;;9.61;100.00
64080;BME280;51042;49.696;10.808;2023-03-31T08:55:53;97032.44;;;9.69;100.00
64080;BME280;51042;49.696;10.808;2023-03-31T09:00:48;97017.06;;;10.05;100.00
64080;BME280;51042;49.696;10.808;2023-03-31T09:03:25;97017.97;;;10.35;100.00
64080;BME280;51042;49.696;10.808;2023-03-31T09:05:59;97005.06;;;10.50;100.00
64080;BME280;51042;49.696;10.808;2023-03-31T09:08:38;97010.63;;;10.64;100.00
64080;BME280;51042;49.696;10.808;2023-03-31T09:11:12;96999.69;;;10.94;100.00
64080;BME280;51042;49.696;10.808;2023-03-31T09:16:50;97002.44;;;11.67;100.00
64080;BME280;51042;49.696;10.808;2023-03-31T09:19:35;97000.56;;;11.73;100.00
64080;BME280;51042;49.696;10.808;2023-03-31T09:22:25;96989.72;;;11.70;100.00
64080;BME280;51042;49.696;10.808;2023-03-31T09:24:57;96994.75;;;11.57;100.00
64080;BME280;51042;49.696;10.808;2023-03-31T09:27:30;96994.78;;;11.27;100.00
64080;BME280;51042;49.696;10.808;2023-03-31T09:32:47;96982.28;;;10.97;100.00
64080;BME280;51042;49.696;10.808;2023-03-31T09:35:23;96985.00;;;10.97;100.00
64080;BME280;51042;49.696;10.808;2023-03-31T09:37:51;96986.25;;;10.96;100.00
64080;BME280;51042;49.696;10.808;2023-03-31T09:40:24;96979.63;;;10.88;100.00
64080;BME280;51042;49.696;10.808;2023-03-31T09:45:42;96983.03;;;11.27;100.00
64080;BME280;51042;49.696;10.808;2023-03-31T09:48:10;96981.34;;;11.29;100.00
64080;BME280;51042;49.696;10.808;2023-03-31T09:50:40;96963.84;;;11.12;100.00
64080;BME280;51042;49.696;10.808;2023-03-31T09:53:13;96975.94;;;11.05;100.00
64080;BME280;51042;49.696;10.808;2023-03-31T09:55:48;96977.06;;;11.28;100.00
64080;BME280;51042;49.696;10.808;2023-03-31T09:58:16;96982.25;;;11.70;100.00
64080;BME280;51042;49.696;10.808;2023-03-31T10:00:42;96976.69;;;12.00;100.00
64080;BME280;51042;49.696;10.808;2023-03-31T10:03:24;96976.97;;;12.83;100.00
64080;BME280;51042;49.696;10.808;2023-03-31T10:05:54;96980.56;;;13.40;100.00
64080;BME280;51042;49.696;10.808;2023-03-31T10:11:05;96978.31;;;13.76;100.00
64080;BME280;51042;49.696;10.808;2023-03-31T10:13:48;96976.09;;;13.48;97.65
64080;BME280;51042;49.696;10.808;2023-03-31T10:16:21;96970.50;;;13.37;100.00
64080;BME280;51042;49.696;10.808;2023-03-31T10:18:51;96987.00;;;13.12;100.00
64080;BME280;51042;49.696;10.808;2023-03-31T10:21:19;96979.88;;;12.99;100.00
64080;BME280;51042;49.696;10.808;2023-03-31T10:23:50;96988.03;;;12.88;100.00
64080;BME280;51042;49.696;10.808;2023-03-31T10:26:16;96969.75;;;12.65;99.87
64080;BME280;51042;49.696;10.808;2023-03-31T10:28:46;96978.72;;;12.40;100.00
64080;BME280;51042;49.696;10.808;2023-03-31T10:31:16;96984.19;;;11.99;100.00
64080;BME280;51042;49.696;10.808;2023-03-31T10:33:44;96995.28;;;11.26;100.00
64080;BME280;51042;49.696;10.808;2023-03-31T10:36:23;97008.75;;;10.47;100.00
64080;BME280;51042;49.696;10.808;2023-03-31T10:38:51;97000.34;;;9.70;100.00
64080;BME280;51042;49.696;10.808;2023-03-31T10:41:27;96997.63;;;9.61;100.00
64080;BME280;51042;49.696;10.808;2023-03-31T10:43:55;96998.88;;;9.83;100.00
64080;BME280;51042;49.696;10.808;2023-03-31T10:49:36;96977.09;;;11.14;100.00
64080;BME280;51042;49.696;10.808;2023-03-31T10:52:01;96976.53;;;11.24;100.00
64080;BME280;51042;49.696;10.808;2023-03-31T10:54:27;96964.78;;;10.94;100.00
64080;BME280;51042;49.696;10.808;2023-03-31T10:57:01;96959.56;;;11.11;100.00
64080;BME280;51042;49.696;10.808;2023-03-31T11:05:11;96938.13;;;11.44;100.00
64080;BME280;51042;49.696;10.808;2023-03-31T11:19:26;96979.66;;;9.18;100.00
64080;BME280;51042;49.696;10.808;2023-03-31T11:36:07;96974.28;;;8.63;100.00
64080;BME280;51042;49.696;10.808;2023-03-31T11:38:46;96975.97;;;8.33;100.00
64080;BME280;51042;49.696;10.808;2023-03-31T11:44:14;96981.19;;;8.00;100.00
64080;BME280;51042;49.696;10.808;2023-03-31T11:49:36;96957.34;;;7.92;100.00
64080;BME280;51042;49.696;10.808;2023-03-31T11:52:06;96955.19;;;7.77;100.00
64080;BME280;51042;49.696;10.808;2023-03-31T11:54:40;96954.88;;;7.75;100.00
64080;BME280;51042;49.696;10.808;2023-03-31T11:57:18;96941.09;;;7.79;100.00
64080;BME280;51042;49.696;10.808;2023-03-31T11:59:58;96938.97;;;7.83;100.00
64080;BME280;51042;49.696;10.808;2023-03-31T12:05:43;96931.41;;;8.05;100.00
64080;BME280;51042;49.696;10.808;2023-03-31T12:08:16;96908.19;;;8.19;100.00
64080;BME280;51042;49.696;10.808;2023-03-31T12:11:11;96914.00;;;8.30;100.00
64080;BME280;51042;49.696;10.808;2023-03-31T12:13:55;96899.09;;;8.40;100.00
64080;BME280;51042;49.696;10.808;2023-03-31T12:16:46;96903.63;;;8.52;100.00
64080;BME280;51042;49.696;10.808;2023-03-31T12:22:11;96940.31;;;9.06;100.00
64080;BME280;51042;49.696;10.808;2023-03-31T12:24:40;96959.53;;;9.30;100.00
64080;BME280;51042;49.696;10.808;2023-03-31T12:29:59;96961.66;;;8.93;100.00
64080;BME280;51042;49.696;10.808;2023-03-31T12:32:33;96910.00;;;8.68;100.00
64080;BME280;51042;49.696;10.808;2023-03-31T12:35:06;96876.09;;;8.83;100.00
64080;BME280;51042;49.696;10.808;2023-03-31T12:40:36;96888.69;;;9.89;100.00
64080;BME280;51042;49.696;10.808;2023-03-31T12:48:59;96945.47;;;9.88;100.00
64080;BME280;51042;49.696;10.808;2023-03-31T12:59:34;96954.22;;;8.66;100.00
64080;BME280;51042;49.696;10.808;2023-03-31T13:04:38;96965.75;;;8.70;100.00
64080;BME280;51042;49.696;10.808;2023-03-31T13:07:07;96958.00;;;8.78;100.00
64080;BME280;51042;49.696;10.808;2023-03-31T13:09:39;96931.59;;;8.75;100.00
64080;BME280;51042;49.696;10.808;2023-03-31T13:12:27;96904.09;;;8.69;100.00
64080;BME280;51042;49.696;10.808;2023-03-31T13:14:54;96892.41;;;8.69;100.00
64080;BME280;51042;49.696;10.808;2023-03-31T13:19:49;96892.38;;;8.78;100.00
64080;BME280;51042;49.696;10.808;2023-03-31T13:25:58;96876.53;;;9.24;100.00
64080;BME280;51042;49.696;10.808;2023-03-31T13:30:45;96867.03;;;9.91;100.00
64080;BME280;51042;49.696;10.808;2023-03-31T13:33:14;96862.19;;;10.09;100.00
64080;BME280;51042;49.696;10.808;2023-03-31T13:35:46;96864.41;;;10.20;100.00
64080;BME280;51042;49.696;10.808;2023-03-31T13:38:29;96856.16;;;10.20;100.00
64080;BME280;51042;49.696;10.808;2023-03-31T13:48:50;96838.84;;;11.52;100.00
64080;BME280;51042;49.696;10.808;2023-03-31T13:51:22;96849.13;;;12.12;100.00
64080;BME280;51042;49.696;10.808;2023-03-31T13:56:54;96847.03;;;12.53;100.00
64080;BME280;51042;49.696;10.808;2023-03-31T14:00:02;96844.84;;;12.88;100.00
64080;BME280;51042;49.696;10.808;2023-03-31T14:02:56;96845.91;;;12.91;98.24
64080;BME280;51042;49.696;10.808;2023-03-31T14:05:38;96850.84;;;13.13;100.00
64080;BME280;51042;49.696;10.808;2023-03-31T14:08:11;96851.91;;;13.21;94.19
64080;BME280;51042;49.696;10.808;2023-03-31T14:10:43;96841.06;;;13.48;97.55
64080;BME280;51042;49.696;10.808;2023-03-31T14:18:32;96850.97;;;12.98;94.97
64080;BME280;51042;49.696;10.808;2023-03-31T14:23:50;96825.50;;;13.08;91.82
64080;BME280;51042;49.696;10.808;2023-03-31T14:31:44;96812.69;;;13.90;80.90
64080;BME280;51042;49.696;10.808;2023-03-31T14:34:32;96815.28;;;13.52;84.56
64080;BME280;51042;49.696;10.808;2023-03-31T14:37:05;96819.81;;;13.18;81.70
64080;BME280;51042;49.696;10.808;2023-03-31T14:39:45;96823.41;;;13.29;77.89
64080;BME280;51042;49.696;10.808;2023-03-31T14:42:13;96819.66;;;13.27;78.08
64080;BME280;51042;49.696;10.808;2023-03-31T14:44:41;96827.84;;;13.16;79.86
64080;BME280;51042;49.696;10.808;2023-03-31T14:47:15;96830.13;;;13.23;78.43
64080;BME280;51042;49.696;10.808;2023-03-31T14:49:45;96823.22;;;13.07;78.45
64080;BME280;51042;49.696;10.808;2023-03-31T14:52:12;96811.72;;;13.08;79.04
64080;BME280;51042;49.696;10.808;2023-03-31T14:54:40;96825.19;;;13.80;75.89
64080;BME280;51042;49.696;10.808;2023-03-31T14:57:10;96809.03;;;14.27;73.71
64080;BME280;51042;49.696;10.808;2023-03-31T14:59:41;96817.16;;;14.47;72.53
64080;BME280;51042;49.696;10.808;2023-03-31T15:02:09;96808.78;;;14.30;70.85
64080;BME280;51042;49.696;10.808;2023-03-31T15:04:40;96806.53;;;14.18;73.30
64080;BME280;51042;49.696;10.808;2023-03-31T15:07:10;96813.69;;;13.87;73.17
64080;BME280;51042;49.696;10.808;2023-03-31T15:09:36;96797.94;;;13.94;75.26
64080;BME280;51042;49.696;10.808;2023-03-31T15:12:03;96796.72;;;14.11;72.47
64080;BME280;51042;49.696;10.808;2023-03-31T15:14:49;96798.22;;;14.12;73.13
64080;BME280;51042;49.696;10.808;2023-03-31T15:17:29;96791.63;;;13.87;73.95
64080;BME280;51042;49.696;10.808;2023-03-31T15:20:00;96786.91;;;13.40;72.09
64080;BME280;51042;49.696;10.808;2023-03-31T15:22:44;96780.22;;;13.52;71.80
64080;BME280;51042;49.696;10.808;2023-03-31T15:25:13;96792.25;;;13.60;71.74
64080;BME280;51042;49.696;10.808;2023-03-31T15:27:42;96800.16;;;13.95;72.69
64080;BME280;51042;49.696;10.808;2023-03-31T15:30:20;96797.25;;;14.21;68.92
64080;BME280;51042;49.696;10.808;2023-03-31T15:32:48;96809.59;;;13.72;69.24
64080;BME280;51042;49.696;10.808;2023-03-31T15:35:21;96807.13;;;13.31;69.99